Time;durP1;ratioP1;P1;durP2;ratioP2;P2;SDS_P1;SDS_P2;PMS_P1;PMS_P2;Temp;Humidity;BMP_temperature;BMP_pressure;BME280_temperature;BME280_humidity;BME280_pressure;Samples;Min_cycle;Max_cycle;Signal;HPM_P1;HPM_P2
2021/06/06 00:03:59;;;;;;;;;;;13.50;99.90;;;;;;8310520;28;19971;-63
2021/06/06 00:08:00;;;;;;;;;;;13.50;99.90;;;;;;8326930;28;19910;-63
2021/06/06 00:12:00;;;;;;;;;;;13.50;99.90;;;;;;8328100;28;19909;-63
2021/06/06 00:16:00;;;;;;;;;;;13.60;99.90;;;;;;8327922;28;20403;-63
2021/06/06 00:20:02;;;;;;;;;;;13.60;99.90;;;;;;8327618;28;19920;-63
2021/06/06 00:24:05;;;;;;;;;;;13.50;99.90;;;;;;8327607;28;20449;-63
2021/06/06 00:28:06;;;;;;;;;;;13.60;99.90;;;;;;8327371;28;19916;-63
2021/06/06 00:32:06;;;;;;;;;;;13.70;99.90;;;;;;8310110;28;19909;-63
2021/06/06 00:36:07;;;;;;;;;;;13.60;99.90;;;;;;8327286;28;19920;-63
2021/06/06 00:40:09;;;;;;;;;;;13.70;99.90;;;;;;8327127;28;19917;-63
2021/06/06 00:44:10;;;;;;;;;;;13.70;99.90;;;;;;8327144;28;20354;-63
2021/06/06 00:48:11;;;;;;;;;;;13.60;99.90;;;;;;8326913;28;19913;-63
2021/06/06 00:52:12;;;;;;;;;;;13.60;99.90;;;;;;8326657;28;19917;-63
2021/06/06 00:56:14;;;;;;;;;;;13.60;99.90;;;;;;8307735;28;19909;-63
2021/06/06 01:00:31;;;;;;;;;;;13.50;99.90;;;;;;8326456;28;20024;-63
2021/06/06 01:04:32;;;;;;;;;;;13.60;99.90;;;;;;8326621;28;19932;-63
2021/06/06 01:08:33;;;;;;;;;;;13.70;99.90;;;;;;8325677;28;19956;-63
2021/06/06 01:12:36;;;;;;;;;;;13.70;99.90;;;;;;8325112;28;19909;-63
2021/06/06 01:16:40;;;;;;;;;;;13.80;99.90;;;;;;8324476;28;20350;-63
2021/06/06 01:20:46;;;;;;;;;;;13.70;99.90;;;;;;8326180;28;19912;-63
2021/06/06 01:24:49;;;;;;;;;;;13.70;99.90;;;;;;8326381;28;19910;-63
2021/06/06 01:28:53;;;;;;;;;;;13.80;99.90;;;;;;8326174;28;20014;-63
2021/06/06 01:32:57;;;;;;;;;;;13.80;99.90;;;;;;8326111;28;20012;-63
2021/06/06 01:37:08;;;;;;;;;;;13.70;99.90;;;;;;8325973;28;19909;-63
2021/06/06 01:41:11;;;;;;;;;;;13.80;99.90;;;;;;8325960;28;19917;-63
2021/06/06 01:45:13;;;;;;;;;;;13.70;99.90;;;;;;8325892;28;20387;-63
2021/06/06 01:49:15;;;;;;;;;;;13.70;99.90;;;;;;8331802;28;20581;-63
2021/06/06 01:53:17;;;;;;;;;;;13.90;99.90;;;;;;8331790;28;20438;-63
2021/06/06 01:57:19;;;;;;;;;;;13.70;99.90;;;;;;8331011;28;19909;-63
2021/06/06 02:01:21;;;;;;;;;;;13.80;99.90;;;;;;8332408;28;19919;-63
2021/06/06 02:05:22;;;;;;;;;;;13.80;99.90;;;;;;8332080;28;19941;-63
2021/06/06 02:09:24;;;;;;;;;;;13.80;99.90;;;;;;8331269;28;19935;-63
2021/06/06 02:13:32;;;;;;;;;;;13.90;99.90;;;;;;8330668;28;19944;-63
2021/06/06 02:17:33;;;;;;;;;;;13.80;99.90;;;;;;8330258;28;19936;-63
2021/06/06 02:21:34;;;;;;;;;;;13.90;99.90;;;;;;8330755;28;19923;-63
2021/06/06 02:25:38;;;;;;;;;;;13.80;99.90;;;;;;8331915;28;19909;-63
2021/06/06 02:29:53;;;;;;;;;;;13.80;99.90;;;;;;8331364;28;19915;-63
2021/06/06 02:34:11;;;;;;;;;;;13.80;99.90;;;;;;8313951;28;19964;-63
2021/06/06 02:38:32;;;;;;;;;;;13.80;99.90;;;;;;8331538;28;19936;-63
2021/06/06 02:42:34;;;;;;;;;;;13.80;99.90;;;;;;8330694;28;19917;-63
2021/06/06 02:46:37;;;;;;;;;;;13.90;99.90;;;;;;8330122;28;20279;-63
2021/06/06 02:50:38;;;;;;;;;;;13.70;99.90;;;;;;8330612;28;19909;-63
2021/06/06 02:54:46;;;;;;;;;;;13.70;99.90;;;;;;8331585;28;19967;-62
2021/06/06 02:58:49;;;;;;;;;;;13.70;99.90;;;;;;8330008;28;19909;-62
2021/06/06 03:02:53;;;;;;;;;;;13.80;99.90;;;;;;8330840;28;20027;-62
2021/06/06 03:06:57;;;;;;;;;;;13.80;99.90;;;;;;8330540;28;19948;-63
2021/06/06 03:10:57;;;;;;;;;;;13.80;99.90;;;;;;8313037;28;19938;-63
2021/06/06 03:14:59;;;;;;;;;;;13.80;99.90;;;;;;8330569;28;19993;-62
2021/06/06 03:19:01;;;;;;;;;;;13.90;99.90;;;;;;8312330;28;19916;-62
2021/06/06 03:23:02;;;;;;;;;;;13.90;99.90;;;;;;8330128;28;19947;-62
2021/06/06 03:27:04;;;;;;;;;;;13.80;99.90;;;;;;8329919;28;19913;-62
2021/06/06 03:31:11;;;;;;;;;;;13.90;99.90;;;;;;8329924;28;20070;-63
2021/06/06 03:35:12;;;;;;;;;;;13.90;99.90;;;;;;8329807;28;19948;-63
2021/06/06 03:39:14;;;;;;;;;;;13.80;99.90;;;;;;8329453;28;19909;-63
2021/06/06 03:43:16;;;;;;;;;;;13.90;99.90;;;;;;8329607;28;19913;-63
2021/06/06 03:47:17;;;;;;;;;;;14.00;99.90;;;;;;8328969;28;20030;-63
2021/06/06 03:51:18;;;;;;;;;;;14.00;99.90;;;;;;8329516;28;19917;-62
2021/06/06 03:55:19;;;;;;;;;;;14.00;99.90;;;;;;8329602;28;19909;-63
2021/06/06 03:59:19;;;;;;;;;;;14.00;99.90;;;;;;8328914;28;19909;-63
2021/06/06 04:03:20;;;;;;;;;;;13.90;99.90;;;;;;8328963;28;19913;-63
2021/06/06 04:07:20;;;;;;;;;;;14.00;99.90;;;;;;8310693;28;19913;-63
2021/06/06 04:11:21;;;;;;;;;;;14.00;99.90;;;;;;8328443;28;20414;-63
2021/06/06 04:15:22;;;;;;;;;;;14.00;99.90;;;;;;8328662;28;20468;-63
2021/06/06 04:19:22;;;;;;;;;;;14.00;99.90;;;;;;8328251;28;19913;-63
2021/06/06 04:23:23;;;;;;;;;;;14.10;99.90;;;;;;8328414;28;19960;-63
2021/06/06 04:27:23;;;;;;;;;;;14.10;99.90;;;;;;8341710;28;20365;-62
2021/06/06 04:31:24;;;;;;;;;;;14.10;99.90;;;;;;8361171;28;20379;-62
2021/06/06 04:35:25;;;;;;;;;;;14.20;99.90;;;;;;8336818;28;19947;-63
2021/06/06 04:39:25;;;;;;;;;;;14.10;99.90;;;;;;8327526;28;19971;-63
2021/06/06 04:43:26;;;;;;;;;;;14.10;99.90;;;;;;8326435;28;19924;-63
2021/06/06 04:47:27;;;;;;;;;;;14.00;99.90;;;;;;8309465;28;20423;-63
2021/06/06 04:51:27;;;;;;;;;;;14.20;99.90;;;;;;8327892;28;19909;-63
2021/06/06 04:55:28;;;;;;;;;;;14.20;99.90;;;;;;8309563;28;19917;-63
2021/06/06 04:59:28;;;;;;;;;;;14.00;99.90;;;;;;8325992;28;19909;-63
2021/06/06 05:03:29;;;;;;;;;;;14.10;99.90;;;;;;8325217;28;19927;-62
2021/06/06 05:07:29;;;;;;;;;;;14.10;99.90;;;;;;8325553;28;19909;-63
2021/06/06 05:11:30;;;;;;;;;;;14.20;99.90;;;;;;8326641;28;19920;-63
2021/06/06 05:15:30;;;;;;;;;;;14.20;99.90;;;;;;8308402;28;19968;-63
2021/06/06 05:19:31;;;;;;;;;;;14.10;99.90;;;;;;8325828;28;20016;-63
2021/06/06 05:23:32;;;;;;;;;;;14.20;99.90;;;;;;8308339;28;19910;-63
2021/06/06 05:27:33;;;;;;;;;;;14.20;99.90;;;;;;8326544;28;19916;-63
2021/06/06 05:31:33;;;;;;;;;;;14.40;99.90;;;;;;8326756;28;19909;-63
2021/06/06 05:35:35;;;;;;;;;;;14.30;99.90;;;;;;8325361;28;20165;-63
2021/06/06 05:39:35;;;;;;;;;;;14.40;99.90;;;;;;8324466;28;20414;-67
2021/06/06 05:43:36;;;;;;;;;;;14.40;99.90;;;;;;8299251;28;19909;-67
2021/06/06 05:47:37;;;;;;;;;;;14.40;99.90;;;;;;8308222;28;19909;-68
2021/06/06 05:51:37;;;;;;;;;;;14.50;99.90;;;;;;8325537;28;20434;-68
2021/06/06 05:55:38;;;;;;;;;;;14.60;99.90;;;;;;8325978;28;19913;-69
2021/06/06 05:59:38;;;;;;;;;;;14.50;99.90;;;;;;8324594;28;19920;-69
2021/06/06 06:03:39;;;;;;;;;;;14.60;99.90;;;;;;8324061;28;19909;-68
2021/06/06 06:07:40;;;;;;;;;;;14.80;99.90;;;;;;8322843;28;19913;-68
2021/06/06 06:11:40;;;;;;;;;;;14.80;99.90;;;;;;8324486;28;19913;-69
2021/06/06 06:15:41;;;;;;;;;;;14.80;99.90;;;;;;8324982;28;19919;-68
2021/06/06 06:19:41;;;;;;;;;;;14.80;99.90;;;;;;8324357;28;19924;-69
2021/06/06 06:23:42;;;;;;;;;;;14.80;99.90;;;;;;8306665;28;19952;-69
2021/06/06 06:27:43;;;;;;;;;;;15.00;99.90;;;;;;8323584;28;20043;-64
2021/06/06 06:31:43;;;;;;;;;;;15.10;99.90;;;;;;8325216;28;20283;-64
2021/06/06 06:35:44;;;;;;;;;;;15.30;99.90;;;;;;8336086;28;19966;-64
2021/06/06 06:39:45;;;;;;;;;;;15.40;99.90;;;;;;8330648;28;20444;-64
2021/06/06 06:43:46;;;;;;;;;;;15.60;99.90;;;;;;8329666;28;19913;-65
2021/06/06 06:47:47;;;;;;;;;;;15.70;99.90;;;;;;8329900;28;19917;-64
2021/06/06 06:51:47;;;;;;;;;;;15.90;99.90;;;;;;8329309;28;19921;-64
2021/06/06 06:55:48;;;;;;;;;;;16.00;99.90;;;;;;8328777;28;19920;-65
2021/06/06 06:59:48;;;;;;;;;;;16.10;99.90;;;;;;8329950;28;19916;-64
2021/06/06 07:03:49;;;;;;;;;;;16.10;99.90;;;;;;8336884;28;20405;-64
2021/06/06 07:07:49;;;;;;;;;;;16.00;99.90;;;;;;8339689;28;19960;-64
2021/06/06 07:11:51;;;;;;;;;;;16.00;99.90;;;;;;8344747;28;20351;-64
2021/06/06 07:15:53;;;;;;;;;;;15.90;99.90;;;;;;8310220;28;20014;-65
2021/06/06 07:19:54;;;;;;;;;;;15.90;99.90;;;;;;8311369;28;19921;-64
2021/06/06 07:23:54;;;;;;;;;;;15.90;99.90;;;;;;8316716;28;19921;-63
2021/06/06 07:27:55;;;;;;;;;;;15.90;99.90;;;;;;8334007;28;19923;-63
2021/06/06 07:31:56;;;;;;;;;;;16.00;99.90;;;;;;8318636;28;19921;-63
2021/06/06 07:35:57;;;;;;;;;;;16.00;99.90;;;;;;8318747;28;19962;-63
2021/06/06 07:39:58;;;;;;;;;;;16.10;99.90;;;;;;8352241;28;19955;-64
2021/06/06 07:43:58;;;;;;;;;;;16.00;99.90;;;;;;8344750;28;20003;-64
2021/06/06 07:47:59;;;;;;;;;;;16.00;99.90;;;;;;8328988;28;19913;-63
2021/06/06 07:52:00;;;;;;;;;;;15.90;99.90;;;;;;8344139;28;19920;-63
2021/06/06 07:56:01;;;;;;;;;;;15.90;99.90;;;;;;8337962;28;19943;-63
2021/06/06 08:00:03;;;;;;;;;;;15.90;99.90;;;;;;8355884;28;19916;-63
2021/06/06 08:04:04;;;;;;;;;;;16.00;99.90;;;;;;8335463;28;19913;-62
2021/06/06 08:08:05;;;;;;;;;;;16.10;99.90;;;;;;8327196;28;19909;-63
2021/06/06 08:12:05;;;;;;;;;;;16.40;99.90;;;;;;8327819;28;19909;-62
2021/06/06 08:16:08;;;;;;;;;;;16.60;99.90;;;;;;8326802;28;19913;-63
2021/06/06 08:20:17;;;;;;;;;;;16.50;99.90;;;;;;8325492;28;19913;-63
2021/06/06 08:24:18;;;;;;;;;;;16.10;99.90;;;;;;8321913;28;19920;-63
2021/06/06 08:28:19;;;;;;;;;;;15.90;99.90;;;;;;8325783;28;19924;-63
2021/06/06 08:32:19;;;;;;;;;;;16.00;99.90;;;;;;8329009;28;20019;-63
2021/06/06 08:36:40;;;;;;;;;;;16.00;99.90;;;;;;8327673;28;19913;-62
2021/06/06 08:40:47;;;;;;;;;;;16.20;99.90;;;;;;8322056;28;19916;-64
2021/06/06 08:44:56;;;;;;;;;;;16.20;99.90;;;;;;8339271;28;20000;-63
2021/06/06 08:48:57;;;;;;;;;;;16.40;99.90;;;;;;8331121;28;19947;-62
2021/06/06 08:52:58;;;;;;;;;;;16.40;99.90;;;;;;8335544;28;20355;-63
2021/06/06 08:57:09;;;;;;;;;;;16.50;99.90;;;;;;8307524;28;19920;-62
2021/06/06 09:01:12;;;;;;;;;;;16.50;99.90;;;;;;8324122;28;19921;-63
2021/06/06 09:05:23;;;;;;;;;;;16.50;99.90;;;;;;8322275;28;20008;-63
2021/06/06 09:09:27;;;;;;;;;;;16.40;99.90;;;;;;8323576;28;19952;-63
2021/06/06 09:13:30;;;;;;;;;;;16.40;99.90;;;;;;8301243;28;19921;-63
2021/06/06 09:17:34;;;;;;;;;;;16.40;99.90;;;;;;8324476;28;19913;-63
2021/06/06 09:21:35;;;;;;;;;;;16.30;99.90;;;;;;8338576;28;19927;-64
2021/06/06 09:25:37;;;;;;;;;;;16.60;99.90;;;;;;8327818;28;19913;-63
2021/06/06 09:29:37;;;;;;;;;;;16.80;99.90;;;;;;8322206;28;19997;-64
2021/06/06 09:33:41;;;;;;;;;;;16.60;99.90;;;;;;8345112;28;19955;-64
2021/06/06 09:37:49;;;;;;;;;;;16.70;99.90;;;;;;8334917;28;19910;-63
2021/06/06 09:41:57;;;;;;;;;;;16.80;99.90;;;;;;8325655;28;19924;-63
2021/06/06 09:46:05;;;;;;;;;;;16.70;99.90;;;;;;8331541;28;19951;-63
2021/06/06 09:50:19;;;;;;;;;;;16.90;99.90;;;;;;8335406;28;19972;-63
2021/06/06 09:54:33;;;;;;;;;;;17.10;99.90;;;;;;8321253;28;19909;-64
2021/06/06 09:58:36;;;;;;;;;;;17.30;99.90;;;;;;8330785;28;19932;-64
2021/06/06 10:02:37;;;;;;;;;;;17.60;99.90;;;;;;8305016;28;19917;-65
2021/06/06 10:06:40;;;;;;;;;;;17.50;99.90;;;;;;8321057;28;19921;-65
2021/06/06 10:10:51;;;;;;;;;;;17.10;99.90;;;;;;8312949;28;19959;-64
2021/06/06 10:14:59;;;;;;;;;;;17.10;99.90;;;;;;8331030;28;19935;-64
2021/06/06 10:19:07;;;;;;;;;;;17.00;99.90;;;;;;8329213;28;19974;-64
2021/06/06 10:23:16;;;;;;;;;;;16.90;99.90;;;;;;8331999;28;20011;-64
2021/06/06 10:27:35;;;;;;;;;;;17.00;99.90;;;;;;8326565;28;19917;-64
2021/06/06 10:31:37;;;;;;;;;;;17.20;99.90;;;;;;8339998;28;19913;-65
2021/06/06 10:35:37;;;;;;;;;;;17.30;99.90;;;;;;8344077;28;19967;-65
2021/06/06 10:39:40;;;;;;;;;;;17.00;99.90;;;;;;8335527;28;20030;-64
2021/06/06 10:43:53;;;;;;;;;;;17.10;99.90;;;;;;8346408;28;20371;-65
2021/06/06 10:48:08;;;;;;;;;;;17.10;99.90;;;;;;8324959;28;20269;-65
2021/06/06 10:52:32;;;;;;;;;;;16.80;99.90;;;;;;8309280;28;20291;-65
2021/06/06 10:56:35;;;;;;;;;;;16.70;99.90;;;;;;8343799;28;19940;-65
2021/06/06 11:00:41;;;;;;;;;;;16.80;99.90;;;;;;8327072;28;19924;-65
2021/06/06 11:04:50;;;;;;;;;;;17.00;99.90;;;;;;8308852;28;19920;-65
2021/06/06 11:08:51;;;;;;;;;;;17.10;99.90;;;;;;8300277;28;19913;-65
2021/06/06 11:12:53;;;;;;;;;;;17.20;99.90;;;;;;8319748;28;19917;-65
2021/06/06 11:17:05;;;;;;;;;;;17.10;99.90;;;;;;8310866;28;20381;-65
2021/06/06 11:21:06;;;;;;;;;;;17.00;99.90;;;;;;8310259;28;19952;-65
2021/06/06 11:25:23;;;;;;;;;;;16.90;99.90;;;;;;8332775;28;20015;-66
2021/06/06 11:29:26;;;;;;;;;;;17.10;99.90;;;;;;8324718;28;20382;-65
2021/06/06 11:33:33;;;;;;;;;;;17.20;99.90;;;;;;8322865;28;20283;-63
2021/06/06 11:37:36;;;;;;;;;;;17.20;99.90;;;;;;8321459;28;19953;-63
2021/06/06 11:41:39;;;;;;;;;;;17.00;99.90;;;;;;8303559;28;19964;-63
2021/06/06 11:45:41;;;;;;;;;;;16.80;99.90;;;;;;8309130;28;20414;-63
2021/06/06 11:50:00;;;;;;;;;;;16.90;99.90;;;;;;8322969;28;20000;-64
2021/06/06 11:54:04;;;;;;;;;;;16.80;99.90;;;;;;8324975;28;19979;-63
2021/06/06 11:58:10;;;;;;;;;;;17.00;99.90;;;;;;8325855;28;19917;-63
2021/06/06 12:02:32;;;;;;;;;;;17.20;99.90;;;;;;8318115;28;19931;-63
2021/06/06 12:06:32;;;;;;;;;;;17.00;99.90;;;;;;8334870;28;19909;-63
2021/06/06 12:10:34;;;;;;;;;;;17.10;99.90;;;;;;8323657;28;19918;-63
2021/06/06 12:14:35;;;;;;;;;;;17.00;99.90;;;;;;8322694;28;19976;-63
2021/06/06 12:18:36;;;;;;;;;;;17.30;99.90;;;;;;8322139;28;19916;-63
2021/06/06 12:22:38;;;;;;;;;;;17.50;99.90;;;;;;8324359;28;19917;-63
2021/06/06 12:26:48;;;;;;;;;;;17.60;99.90;;;;;;8323852;28;19909;-63
2021/06/06 12:30:48;;;;;;;;;;;17.60;99.90;;;;;;8326691;28;19964;-63
2021/06/06 12:34:49;;;;;;;;;;;17.80;99.90;;;;;;8337465;28;20556;-62
2021/06/06 12:38:53;;;;;;;;;;;17.80;99.90;;;;;;8326886;28;20349;-63
2021/06/06 12:42:55;;;;;;;;;;;17.90;99.90;;;;;;8326740;28;19924;-63
2021/06/06 12:46:57;;;;;;;;;;;18.00;99.90;;;;;;8321839;28;19957;-62
2021/06/06 12:50:58;;;;;;;;;;;17.80;99.90;;;;;;8323780;28;19920;-62
2021/06/06 12:55:22;;;;;;;;;;;17.70;99.90;;;;;;8319672;28;19921;-63
2021/06/06 12:59:25;;;;;;;;;;;17.80;99.90;;;;;;8303158;28;19913;-63
2021/06/06 13:03:26;;;;;;;;;;;17.80;99.90;;;;;;8324897;28;20399;-63
2021/06/06 13:07:32;;;;;;;;;;;17.80;99.90;;;;;;8343939;28;19924;-63
2021/06/06 13:11:37;;;;;;;;;;;17.80;99.90;;;;;;8344251;28;19909;-63
2021/06/06 13:15:39;;;;;;;;;;;17.80;99.90;;;;;;8323875;28;19944;-63
2021/06/06 13:19:42;;;;;;;;;;;17.50;99.90;;;;;;8332089;28;19980;-63
2021/06/06 13:23:44;;;;;;;;;;;17.60;99.90;;;;;;8338317;28;19924;-62
2021/06/06 13:27:44;;;;;;;;;;;17.60;99.90;;;;;;8349278;28;20374;-62
2021/06/06 13:31:51;;;;;;;;;;;17.60;99.90;;;;;;8352185;28;19990;-62
2021/06/06 13:35:52;;;;;;;;;;;17.70;99.90;;;;;;8307558;28;19909;-62
2021/06/06 13:39:53;;;;;;;;;;;17.70;99.90;;;;;;8325951;28;20390;-64
2021/06/06 13:43:55;;;;;;;;;;;17.40;99.90;;;;;;8329317;28;19913;-64
2021/06/06 13:47:57;;;;;;;;;;;17.20;99.90;;;;;;8331331;28;20299;-63
2021/06/06 13:51:58;;;;;;;;;;;17.30;99.90;;;;;;8331735;28;19917;-64
2021/06/06 13:55:59;;;;;;;;;;;17.30;99.90;;;;;;8334114;28;19913;-63
2021/06/06 13:59:59;;;;;;;;;;;17.30;99.90;;;;;;8350607;28;19913;-63
2021/06/06 14:04:00;;;;;;;;;;;17.20;99.90;;;;;;8331441;28;19917;-64
2021/06/06 14:08:01;;;;;;;;;;;17.10;99.90;;;;;;8322760;28;20523;-63
2021/06/06 14:12:05;;;;;;;;;;;17.10;99.90;;;;;;8329039;28;19913;-63
2021/06/06 14:16:09;;;;;;;;;;;17.20;99.90;;;;;;8327849;28;19921;-62
2021/06/06 14:20:11;;;;;;;;;;;16.80;99.90;;;;;;8351165;28;19947;-62
2021/06/06 14:24:13;;;;;;;;;;;16.90;99.90;;;;;;8336497;28;19979;-63
2021/06/06 14:28:14;;;;;;;;;;;17.20;99.90;;;;;;8307443;28;19920;-63
2021/06/06 14:32:15;;;;;;;;;;;17.30;99.90;;;;;;8324349;28;19917;-63
2021/06/06 14:36:17;;;;;;;;;;;17.30;99.90;;;;;;8328207;28;20434;-62
2021/06/06 14:40:25;;;;;;;;;;;17.50;99.90;;;;;;8327585;28;20003;-63
2021/06/06 14:44:26;;;;;;;;;;;17.50;99.90;;;;;;8326814;28;19921;-63
2021/06/06 14:48:28;;;;;;;;;;;17.50;99.90;;;;;;8333793;28;19921;-63
2021/06/06 14:52:28;;;;;;;;;;;17.50;99.90;;;;;;8328162;28;19921;-63
2021/06/06 14:56:29;;;;;;;;;;;17.50;99.90;;;;;;8333431;28;19955;-64
2021/06/06 15:00:32;;;;;;;;;;;17.60;99.90;;;;;;8328425;28;19913;-63
2021/06/06 15:04:32;;;;;;;;;;;17.60;99.90;;;;;;8333290;28;19913;-63
2021/06/06 15:08:33;;;;;;;;;;;17.50;99.90;;;;;;8332047;28;19931;-63
2021/06/06 15:12:33;;;;;;;;;;;17.20;99.90;;;;;;8340869;28;19927;-63
2021/06/06 15:16:34;;;;;;;;;;;17.10;99.90;;;;;;8351231;28;19958;-63
2021/06/06 15:20:35;;;;;;;;;;;17.20;99.90;;;;;;8334220;28;20129;-64
2021/06/06 15:24:36;;;;;;;;;;;17.30;99.90;;;;;;8338671;28;19913;-63
2021/06/06 15:28:37;;;;;;;;;;;17.30;99.90;;;;;;8335147;28;19917;-63
2021/06/06 15:32:38;;;;;;;;;;;17.40;99.90;;;;;;8344037;28;19940;-63
2021/06/06 15:36:38;;;;;;;;;;;17.60;99.90;;;;;;8325317;28;20559;-63
2021/06/06 15:40:39;;;;;;;;;;;17.40;99.90;;;;;;8335351;28;19924;-63
2021/06/06 15:44:40;;;;;;;;;;;17.10;99.90;;;;;;8327763;28;19924;-63
2021/06/06 15:48:41;;;;;;;;;;;17.20;99.90;;;;;;8325756;28;20435;-63
2021/06/06 15:52:41;;;;;;;;;;;17.20;99.90;;;;;;8325544;28;20338;-64
2021/06/06 15:56:42;;;;;;;;;;;17.10;99.90;;;;;;8323328;28;19991;-64
2021/06/06 16:00:44;;;;;;;;;;;17.10;99.90;;;;;;8326168;28;20007;-63
2021/06/06 16:04:46;;;;;;;;;;;17.10;99.90;;;;;;8324941;28;19917;-71
2021/06/06 16:08:47;;;;;;;;;;;16.90;99.90;;;;;;8309484;28;19910;-71
2021/06/06 16:12:48;;;;;;;;;;;17.00;99.90;;;;;;8309406;28;19913;-70
2021/06/06 16:16:48;;;;;;;;;;;16.90;99.90;;;;;;8308312;28;19915;-69
2021/06/06 16:20:49;;;;;;;;;;;17.00;99.90;;;;;;8326107;28;19917;-68
2021/06/06 16:24:51;;;;;;;;;;;17.00;99.90;;;;;;8333834;28;20056;-69
2021/06/06 16:28:51;;;;;;;;;;;17.00;99.90;;;;;;8342947;28;19939;-70
2021/06/06 16:32:53;;;;;;;;;;;17.00;99.90;;;;;;8344791;28;19955;-69
2021/06/06 16:36:53;;;;;;;;;;;16.90;99.90;;;;;;8300116;28;19944;-68
2021/06/06 16:40:55;;;;;;;;;;;17.10;99.90;;;;;;8332735;28;19924;-69
2021/06/06 16:44:55;;;;;;;;;;;17.00;99.90;;;;;;8319600;28;19929;-69
2021/06/06 16:48:56;;;;;;;;;;;17.10;99.90;;;;;;8309104;28;19917;-71
2021/06/06 16:52:56;;;;;;;;;;;17.00;99.90;;;;;;8326437;28;19956;-72
2021/06/06 16:56:57;;;;;;;;;;;16.80;99.90;;;;;;8326864;28;19909;-72
2021/06/06 17:00:59;;;;;;;;;;;16.80;99.90;;;;;;8327600;28;19955;-72
2021/06/06 17:05:00;;;;;;;;;;;16.80;99.90;;;;;;8336727;28;20401;-72
2021/06/06 17:09:03;;;;;;;;;;;16.70;99.90;;;;;;8341256;28;19909;-71
2021/06/06 17:13:04;;;;;;;;;;;16.60;99.90;;;;;;8326856;28;20452;-63
2021/06/06 17:17:05;;;;;;;;;;;16.40;99.90;;;;;;8322686;28;20286;-62
2021/06/06 17:21:06;;;;;;;;;;;16.20;99.90;;;;;;8318036;28;19932;-62
2021/06/06 17:25:08;;;;;;;;;;;16.10;99.90;;;;;;8321498;28;19913;-62
2021/06/06 17:29:11;;;;;;;;;;;16.20;99.90;;;;;;8319144;28;19921;-62
2021/06/06 17:33:12;;;;;;;;;;;16.20;99.90;;;;;;8318711;28;19913;-61
2021/06/06 17:37:13;;;;;;;;;;;16.20;99.90;;;;;;8319241;28;19917;-62
2021/06/06 17:41:14;;;;;;;;;;;16.10;99.90;;;;;;8319597;28;20407;-62
2021/06/06 17:45:15;;;;;;;;;;;16.20;99.90;;;;;;8299560;28;19917;-62
2021/06/06 17:49:16;;;;;;;;;;;16.30;99.90;;;;;;8331198;28;20280;-62
2021/06/06 17:53:18;;;;;;;;;;;16.20;99.90;;;;;;8334566;28;20386;-62
2021/06/06 17:57:19;;;;;;;;;;;16.30;99.90;;;;;;8335795;28;20378;-62
2021/06/06 18:01:21;;;;;;;;;;;16.20;99.90;;;;;;8335749;28;19954;-62
2021/06/06 18:05:23;;;;;;;;;;;16.30;99.90;;;;;;8335879;28;19972;-62
2021/06/06 18:09:23;;;;;;;;;;;16.20;99.90;;;;;;8335370;28;20683;-62
2021/06/06 18:13:26;;;;;;;;;;;16.20;99.90;;;;;;8326417;28;19917;-61
2021/06/06 18:17:27;;;;;;;;;;;16.20;99.90;;;;;;8325092;28;19948;-62
2021/06/06 18:21:31;;;;;;;;;;;16.20;99.90;;;;;;8318402;28;19928;-61
2021/06/06 18:25:34;;;;;;;;;;;16.20;99.90;;;;;;8303092;28;19979;-62
2021/06/06 18:29:35;;;;;;;;;;;16.20;99.90;;;;;;8301428;28;19917;-63
2021/06/06 18:33:35;;;;;;;;;;;16.20;99.90;;;;;;8302596;28;20000;-63
2021/06/06 18:37:36;;;;;;;;;;;16.10;99.90;;;;;;8307186;28;20398;-62
2021/06/06 18:41:37;;;;;;;;;;;16.10;99.90;;;;;;8275303;28;20023;-64
2021/06/06 18:45:38;;;;;;;;;;;16.10;99.90;;;;;;8293082;28;20593;-63
2021/06/06 18:49:38;;;;;;;;;;;16.10;99.90;;;;;;8293030;28;19918;-63
2021/06/06 18:53:39;;;;;;;;;;;16.20;99.90;;;;;;8297781;28;20461;-63
2021/06/06 18:57:39;;;;;;;;;;;16.20;99.90;;;;;;8292773;28;19916;-63
2021/06/06 19:01:40;;;;;;;;;;;16.00;99.90;;;;;;8283186;28;20588;-63
2021/06/06 19:05:43;;;;;;;;;;;16.00;99.90;;;;;;8300673;28;20043;-64
2021/06/06 19:09:46;;;;;;;;;;;16.00;99.90;;;;;;8304013;28;19925;-63
2021/06/06 19:13:46;;;;;;;;;;;16.10;99.90;;;;;;8319509;28;20040;-63
2021/06/06 19:17:47;;;;;;;;;;;16.10;99.90;;;;;;8323265;28;19917;-63
2021/06/06 19:21:48;;;;;;;;;;;16.00;99.90;;;;;;8322754;28;19928;-64
2021/06/06 19:25:49;;;;;;;;;;;15.90;99.90;;;;;;8340129;28;19951;-66
2021/06/06 19:29:50;;;;;;;;;;;16.00;99.90;;;;;;8339806;28;20368;-66
2021/06/06 19:33:51;;;;;;;;;;;16.10;99.90;;;;;;8333820;28;19921;-67
2021/06/06 19:37:52;;;;;;;;;;;16.00;99.90;;;;;;8318163;28;20373;-63
2021/06/06 19:41:53;;;;;;;;;;;16.10;99.90;;;;;;8281036;28;20037;-63
2021/06/06 19:45:54;;;;;;;;;;;16.00;99.90;;;;;;8297642;28;19913;-63
2021/06/06 19:49:55;;;;;;;;;;;15.90;99.90;;;;;;8315875;28;19949;-64
2021/06/06 19:53:56;;;;;;;;;;;15.80;99.90;;;;;;8320767;28;19971;-63
2021/06/06 19:57:58;;;;;;;;;;;16.00;99.90;;;;;;8304632;28;20008;-63
2021/06/06 20:01:59;;;;;;;;;;;16.00;99.90;;;;;;8323165;28;19959;-63
2021/06/06 20:06:01;;;;;;;;;;;15.90;99.90;;;;;;8324573;28;19913;-63
2021/06/06 20:10:07;;;;;;;;;;;15.90;99.90;;;;;;8321752;28;19917;-63
2021/06/06 20:14:28;;;;;;;;;;;15.90;99.90;;;;;;8289524;28;20099;-63
2021/06/06 20:18:29;;;;;;;;;;;15.80;99.90;;;;;;8326694;28;19909;-63
2021/06/06 20:22:29;;;;;;;;;;;15.80;99.90;;;;;;8308572;28;19967;-63
2021/06/06 20:26:30;;;;;;;;;;;15.80;99.90;;;;;;8321329;28;19958;-63
2021/06/06 20:30:31;;;;;;;;;;;15.90;99.90;;;;;;8338159;28;19913;-63
2021/06/06 20:35:12;;;;;;;;;;;16.10;99.90;;;;;;8337321;28;20414;-63
2021/06/06 20:38:56;;;;;;;;;;;16.00;99.90;;;;;;8339228;28;19943;-63
2021/06/06 20:42:56;;;;;;;;;;;15.70;99.90;;;;;;8338785;28;19921;-63
2021/06/06 20:46:58;;;;;;;;;;;15.90;99.90;;;;;;8325212;28;19967;-63
2021/06/06 20:50:58;;;;;;;;;;;15.80;99.90;;;;;;8323545;28;19913;-63
2021/06/06 20:55:00;;;;;;;;;;;15.90;99.90;;;;;;8305863;28;19947;-63
2021/06/06 20:59:01;;;;;;;;;;;15.80;99.90;;;;;;8320726;28;19943;-63
2021/06/06 21:03:02;;;;;;;;;;;15.80;99.90;;;;;;8331623;28;19917;-63
2021/06/06 21:07:03;;;;;;;;;;;15.90;99.90;;;;;;8349354;28;19919;-63
2021/06/06 21:11:04;;;;;;;;;;;15.80;99.90;;;;;;8350034;28;19916;-63
2021/06/06 21:15:05;;;;;;;;;;;15.80;99.90;;;;;;8320626;28;19915;-63
2021/06/06 21:19:06;;;;;;;;;;;15.80;99.90;;;;;;8329900;28;20292;-63
2021/06/06 21:23:10;;;;;;;;;;;15.80;99.90;;;;;;8304135;28;19923;-63
2021/06/06 21:27:11;;;;;;;;;;;15.80;99.90;;;;;;8304580;28;19959;-63
2021/06/06 21:31:20;;;;;;;;;;;15.60;99.90;;;;;;8322477;28;20334;-63
2021/06/06 21:35:21;;;;;;;;;;;15.80;99.90;;;;;;8328587;28;19913;-63
2021/06/06 21:39:21;;;;;;;;;;;15.70;99.90;;;;;;8322250;28;19995;-63
2021/06/06 21:43:22;;;;;;;;;;;15.70;99.90;;;;;;8322566;28;19913;-63
2021/06/06 21:47:23;;;;;;;;;;;15.80;99.90;;;;;;8315655;28;19967;-63
2021/06/06 21:51:24;;;;;;;;;;;15.60;99.90;;;;;;8324702;28;20337;-63
2021/06/06 21:55:25;;;;;;;;;;;15.60;99.90;;;;;;8325070;28;19913;-63
2021/06/06 21:59:26;;;;;;;;;;;15.60;99.90;;;;;;8325360;28;19913;-63
2021/06/06 22:03:27;;;;;;;;;;;15.70;99.90;;;;;;8308797;28;20391;-63
2021/06/06 22:07:27;;;;;;;;;;;15.60;99.90;;;;;;8362089;28;19978;-63
2021/06/06 22:11:29;;;;;;;;;;;15.80;99.90;;;;;;8347444;28;19948;-63
2021/06/06 22:15:29;;;;;;;;;;;15.70;99.90;;;;;;8364669;28;19962;-63
2021/06/06 22:19:48;;;;;;;;;;;15.50;99.90;;;;;;8364618;28;20038;-63
2021/06/06 22:24:07;;;;;;;;;;;15.50;99.90;;;;;;8350541;28;19913;-63
2021/06/06 22:28:27;;;;;;;;;;;15.60;99.90;;;;;;8313900;28;20399;-63
2021/06/06 22:32:48;;;;;;;;;;;15.70;99.90;;;;;;8314060;28;20383;-63
2021/06/06 22:37:07;;;;;;;;;;;15.60;99.90;;;;;;8298638;28;20288;-63
2021/06/06 22:41:26;;;;;;;;;;;15.60;99.90;;;;;;8279657;28;19922;-63
2021/06/06 22:45:45;;;;;;;;;;;15.50;99.90;;;;;;8295956;28;19928;-63
2021/06/06 22:50:04;;;;;;;;;;;15.60;99.90;;;;;;8295601;28;20323;-63
2021/06/06 22:54:23;;;;;;;;;;;15.60;99.90;;;;;;8312612;28;19909;-63
2021/06/06 22:58:42;;;;;;;;;;;15.60;99.90;;;;;;8328375;28;19920;-63
2021/06/06 23:03:01;;;;;;;;;;;15.60;99.90;;;;;;8328368;28;19945;-63
2021/06/06 23:07:20;;;;;;;;;;;15.50;99.90;;;;;;8354614;28;19928;-63
2021/06/06 23:11:39;;;;;;;;;;;15.40;99.90;;;;;;8361339;28;20003;-63
2021/06/06 23:15:39;;;;;;;;;;;15.40;99.90;;;;;;8360794;28;20385;-63
2021/06/06 23:19:44;;;;;;;;;;;15.50;99.90;;;;;;8342814;28;19909;-63
2021/06/06 23:23:45;;;;;;;;;;;15.50;99.90;;;;;;8346448;28;20294;-63
2021/06/06 23:27:45;;;;;;;;;;;15.40;99.90;;;;;;8310066;28;19913;-63
2021/06/06 23:31:46;;;;;;;;;;;15.50;99.90;;;;;;8327821;28;19940;-63
2021/06/06 23:35:46;;;;;;;;;;;15.50;99.90;;;;;;8327300;28;19915;-63